Time;durP1;ratioP1;P1;durP2;ratioP2;P2;SDS_P1;SDS_P2;PMS_P1;PMS_P2;Temp;Humidity;BMP_temperature;BMP_pressure;BME280_temperature;BME280_humidity;BME280_pressure;Samples;Min_cycle;Max_cycle;Signal;HPM_P1;HPM_P2
2022/08/02 00:03:08;;;;;;;7.97;4.05;;;;;;;22.79;62.94;99543.69;10540388;28;20085;-71
2022/08/02 00:08:09;;;;;;;10.45;4.07;;;;;;;22.46;62.76;99477.31;10543693;28;20043;-71
2022/08/02 00:13:10;;;;;;;12.20;4.68;;;;;;;23.03;63.74;99606.31;10525735;28;20407;-71
2022/08/02 00:18:11;;;;;;;15.07;4.47;;;;;;;22.87;64.11;99591.09;10543264;28;20134;-71
2022/08/02 00:23:12;;;;;;;10.05;4.18;;;;;;;22.73;64.89;99586.19;10542923;28;20509;-71
2022/08/02 00:28:12;;;;;;;8.38;3.95;;;;;;;22.62;65.35;99584.53;10543513;28;20074;-71
2022/08/02 00:33:13;;;;;;;10.60;4.10;;;;;;;22.51;65.87;99572.03;10542159;28;20144;-71
2022/08/02 00:38:14;;;;;;;9.38;4.72;;;;;;;22.52;65.61;99579.06;10542624;28;20052;-71
2022/08/02 00:43:16;;;;;;;8.10;4.18;;;;;;;22.39;66.09;99587.69;10541631;28;20040;-71
2022/08/02 00:48:16;;;;;;;13.85;4.65;;;;;;;22.19;66.45;99542.41;10541715;28;20040;-71
2022/08/02 00:53:17;;;;;;;7.68;4.22;;;;;;;22.36;66.73;99574.69;10541942;28;20051;-71
2022/08/02 00:58:18;;;;;;;5.88;4.28;;;;;;;22.27;66.62;99572.50;10541845;28;20069;-71
2022/08/02 01:03:19;;;;;;;7.53;4.00;;;;;;;22.18;66.74;99589.50;10523564;28;20540;-71
2022/08/02 01:08:20;;;;;;;6.80;3.88;;;;;;;21.98;67.15;99590.16;10540635;28;20054;-71
2022/08/02 01:13:21;;;;;;;8.45;4.10;;;;;;;21.77;68.06;99583.81;10540734;28;20082;-72
2022/08/02 01:18:30;;;;;;;7.93;4.60;;;;;;;21.58;69.87;99591.53;10515584;28;20464;-71
2022/08/02 01:23:53;;;;;;;26.88;5.88;;;;;;;21.67;71.88;99600.78;10497417;28;20032;-71
2022/08/02 01:29:08;;;;;;;85.73;10.00;;;;;;;20.96;71.72;99519.91;10498911;28;20062;-71
2022/08/02 01:34:27;;;;;;;86.07;8.98;;;;;;;21.45;73.25;99603.59;10497982;28;20492;-71
2022/08/02 01:39:31;;;;;;;14.10;4.90;;;;;;;20.84;71.87;99532.78;10497709;28;20040;-71
2022/08/02 01:44:36;;;;;;;51.75;6.53;;;;;;;21.31;72.03;99613.97;10498415;28;20051;-71
2022/08/02 01:49:41;;;;;;;14.90;5.07;;;;;;;21.16;71.75;99611.94;10497339;28;20041;-71
2022/08/02 01:54:44;;;;;;;59.30;7.15;;;;;;;20.84;72.26;99582.16;10497623;28;20040;-71
2022/08/02 01:59:47;;;;;;;16.13;4.93;;;;;;;21.03;72.56;99627.72;10496739;28;20037;-71
2022/08/02 02:04:50;;;;;;;16.92;5.05;;;;;;;20.89;73.03;99620.03;10479008;28;20048;-71
2022/08/02 02:09:51;;;;;;;;;;;;;;;21.11;71.60;99635.38;10498536;28;20381;-71
2022/08/02 02:14:55;;;;;;;20.40;5.05;;;;;;;20.87;73.87;99629.44;10497242;28;19924;-71
2022/08/02 02:19:59;;;;;;;10.25;4.65;;;;;;;20.90;74.64;99639.72;10496274;28;20105;-71
2022/08/02 02:24:59;;;;;;;10.30;4.07;;;;;;;20.81;73.61;99606.16;10496648;28;20041;-71
2022/08/02 02:30:02;;;;;;;28.52;5.30;;;;;;;21.00;74.73;99628.22;10502950;28;20040;-71
2022/08/02 02:35:04;;;;;;;12.87;4.77;;;;;;;21.31;73.89;99640.97;10511938;28;20044;-71
2022/08/02 02:40:07;;;;;;;13.23;4.65;;;;;;;21.40;74.09;99636.75;10519507;28;20130;-71
2022/08/02 02:45:10;;;;;;;8.43;4.07;;;;;;;21.53;74.16;99637.41;10536052;28;20044;-71
2022/08/02 02:50:11;;;;;;;33.42;7.05;;;;;;;21.63;74.04;99642.91;10537064;28;20066;-71
2022/08/02 02:55:12;;;;;;;14.63;4.75;;;;;;;21.93;73.73;99657.72;10537918;28;20404;-71
2022/08/02 03:00:14;;;;;;;15.35;4.22;;;;;;;22.33;72.83;99652.59;10538446;28;20061;-71
2022/08/02 03:05:15;;;;;;;14.60;4.20;;;;;;;22.40;71.40;99573.06;10537297;28;20043;-71
2022/08/02 03:10:15;;;;;;;13.38;4.43;;;;;;;23.79;69.09;99659.81;10537432;28;20040;-71
2022/08/02 03:15:17;;;;;;;11.20;4.15;;;;;;;24.99;65.37;99658.13;10537795;28;20143;-71
2022/08/02 03:20:19;;;;;;;12.18;3.70;;;;;;;26.01;62.46;99659.34;10519694;28;20116;-71
2022/08/02 03:25:20;;;;;;;15.97;3.73;;;;;;;26.81;59.69;99614.34;10519122;28;20101;-72
2022/08/02 03:30:23;;;;;;;8.25;3.30;;;;;;;28.15;55.96;99647.41;10536543;28;20115;-72
2022/08/02 03:35:24;;;;;;;6.70;3.17;;;;;;;28.70;53.85;99629.44;10536463;28;20036;-72
2022/08/02 03:40:25;;;;;;;10.13;3.45;;;;;;;29.50;52.04;99649.78;10518911;28;20032;-72
2022/08/02 03:45:27;;;;;;;13.70;3.05;;;;;;;30.10;50.58;99656.78;10536550;28;20044;-72
2022/08/02 03:50:29;;;;;;;11.70;3.87;;;;;;;30.73;49.57;99677.50;10536681;28;20044;-72
2022/08/02 03:55:30;;;;;;;17.98;3.75;;;;;;;31.05;48.88;99680.97;10528441;28;20044;-72
2022/08/02 04:00:31;;;;;;;14.82;3.40;;;;;;;31.49;47.84;99679.09;10539063;28;20040;-72
2022/08/02 04:05:32;;;;;;;15.55;3.78;;;;;;;31.90;47.18;99651.13;10543668;28;20035;-72
2022/08/02 04:11:29;;;;;;;17.05;3.78;;;;;;;32.44;46.60;99667.09;10540774;28;20112;-72
2022/08/02 04:15:57;;;;;;;16.83;4.00;;;;;;;33.05;45.58;99677.78;10539861;28;20056;-72
2022/08/02 04:21:01;;;;;;;17.20;4.32;;;;;;;33.26;44.60;99669.50;10541599;28;20092;-72
2022/08/02 04:26:04;;;;;;;23.33;4.20;;;;;;;33.25;45.06;99678.94;10539290;28;20393;-72
2022/08/02 04:31:06;;;;;;;15.05;3.63;;;;;;;33.36;45.66;99680.13;10539496;28;20040;-73
2022/08/02 04:36:07;;;;;;;13.65;3.53;;;;;;;33.06;46.08;99671.94;10538471;28;20032;-71
2022/08/02 04:41:08;;;;;;;13.68;3.63;;;;;;;32.64;47.47;99669.13;10537805;28;20531;-71
2022/08/02 04:46:09;;;;;;;11.52;3.00;;;;;;;32.38;46.84;99635.41;10522499;28;20040;-71
2022/08/02 04:51:10;;;;;;;14.45;3.83;;;;;;;32.74;47.38;99676.16;10511453;28;20151;-71
2022/08/02 04:56:11;;;;;;;12.18;3.63;;;;;;;32.93;46.17;99662.75;10499437;28;20072;-71
2022/08/02 05:01:11;;;;;;;15.52;3.38;;;;;;;32.59;45.96;99573.06;10498320;28;20141;-71
2022/08/02 05:06:12;;;;;;;17.15;3.50;;;;;;;32.58;46.76;99590.72;10498514;28;20530;-71
2022/08/02 05:11:13;;;;;;;39.25;6.03;;;;;;;32.79;47.59;99672.41;10498820;28;20117;-71
2022/08/02 05:16:14;;;;;;;15.18;3.65;;;;;;;32.45;47.85;99675.00;10499511;28;20074;-71
2022/08/02 05:21:15;;;;;;;7.03;3.45;;;;;;;31.59;49.45;99635.66;10498883;28;20071;-71
2022/08/02 05:26:16;;;;;;;17.10;4.00;;;;;;;31.59;50.19;99649.38;10498200;28;20052;-71
2022/08/02 05:31:17;;;;;;;27.73;4.63;;;;;;;31.46;49.15;99661.31;10498020;28;20123;-71
2022/08/02 05:36:17;;;;;;;10.80;3.35;;;;;;;31.47;48.48;99643.75;10480562;28;20037;-71
2022/08/02 05:41:19;;;;;;;34.40;4.13;;;;;;;31.73;44.88;99657.41;10498256;28;20028;-71
2022/08/02 05:46:20;;;;;;;26.87;3.70;;;;;;;31.76;43.94;99637.53;10498030;28;20044;-71
2022/08/02 05:51:41;;;;;;;6.95;2.47;;;;;;;32.05;41.90;99631.34;10498283;28;20040;-71
2022/08/02 05:56:49;;;;;;;8.57;2.50;;;;;;;32.13;41.90;99651.69;10479230;28;20036;-71
2022/08/02 06:01:56;;;;;;;8.10;2.65;;;;;;;31.82;40.05;99584.06;10496645;28;20044;-71
2022/08/02 06:07:01;;;;;;;12.30;2.53;;;;;;;32.15;40.31;99638.41;10495170;28;20068;-71
2022/08/02 06:12:03;;;;;;;8.18;2.83;;;;;;;32.21;39.16;99634.34;10496420;28;20040;-71
2022/08/02 06:17:04;;;;;;;21.92;2.83;;;;;;;32.28;38.07;99637.41;10496392;28;20056;-73
2022/08/02 06:22:15;;;;;;;15.18;2.78;;;;;;;32.17;37.36;99569.41;10496344;28;20041;-71
2022/08/02 06:27:16;;;;;;;9.18;2.78;;;;;;;32.60;36.22;99602.16;10496601;28;20045;-72
2022/08/02 06:32:18;;;;;;;23.88;2.72;;;;;;;32.97;34.59;99638.16;10496238;28;20412;-70
2022/08/02 06:37:34;;;;;;;9.47;2.40;;;;;;;33.23;34.88;99626.16;10496816;28;20037;-71
2022/08/02 06:43:12;;;;;;;9.20;2.28;;;;;;;33.38;35.57;99620.81;10496864;28;20047;-72
2022/08/02 06:48:12;;;;;;;6.70;2.30;;;;;;;33.40;34.66;99610.28;10492148;28;20385;-72
2022/08/02 06:53:13;;;;;;;12.07;2.42;;;;;;;33.55;34.55;99583.28;10495804;28;20041;-72
2022/08/02 06:58:14;;;;;;;10.98;2.63;;;;;;;33.45;34.17;99564.44;10495924;28;20040;-73
2022/08/02 07:03:16;;;;;;;6.07;2.60;;;;;;;33.75;33.65;99600.91;10495879;28;20392;-72
2022/08/02 07:08:18;;;;;;;6.97;2.60;;;;;;;33.84;33.49;99601.59;10495248;28;20048;-72
2022/08/02 07:13:19;;;;;;;11.68;2.58;;;;;;;33.84;32.49;99582.31;10495244;28;20119;-70
2022/08/02 07:18:20;;;;;;;11.15;2.70;;;;;;;34.12;31.81;99589.94;10494944;28;20037;-71
2022/08/02 07:23:21;;;;;;;7.30;2.43;;;;;;;34.37;30.74;99591.53;10493698;28;20036;-71
2022/08/02 07:28:22;;;;;;;13.23;2.70;;;;;;;34.13;30.01;99563.97;10495306;28;20037;-70
2022/08/02 07:33:23;;;;;;;5.75;2.20;;;;;;;34.28;28.80;99571.56;10501244;28;20408;-71
2022/08/02 07:38:23;;;;;;;22.83;2.60;;;;;;;34.49;28.55;99586.03;10502515;28;20136;-71
2022/08/02 07:43:24;;;;;;;9.75;2.47;;;;;;;34.72;28.04;99591.06;10502910;28;20032;-72
2022/08/02 07:48:25;;;;;;;8.27;2.30;;;;;;;34.84;27.46;99577.22;10502651;28;20055;-70
2022/08/02 07:53:26;;;;;;;8.35;2.20;;;;;;;35.11;27.53;99581.19;10501907;28;20051;-71
2022/08/02 07:58:27;;;;;;;10.48;2.33;;;;;;;35.22;27.52;99575.97;10502979;28;20032;-70
2022/08/02 08:03:28;;;;;;;6.60;2.22;;;;;;;34.75;26.81;99497.34;10501661;28;20064;-70
2022/08/02 08:08:28;;;;;;;9.18;2.55;;;;;;;34.95;26.87;99512.13;10501374;28;20045;-71
2022/08/02 08:13:29;;;;;;;11.30;2.40;;;;;;;34.99;27.22;99501.16;10501769;28;20109;-69
2022/08/02 08:18:30;;;;;;;5.57;2.58;;;;;;;35.45;27.55;99570.69;10501669;28;20051;-70
2022/08/02 08:23:31;;;;;;;11.50;2.40;;;;;;;35.63;27.38;99565.63;10500843;28;20036;-70
2022/08/02 08:28:32;;;;;;;9.07;2.28;;;;;;;35.24;26.30;99499.13;10501064;28;20408;-72
2022/08/02 08:33:33;;;;;;;13.15;3.05;;;;;;;35.67;26.44;99558.25;10501012;28;20044;-69
2022/08/02 08:38:33;;;;;;;15.55;2.67;;;;;;;35.66;25.63;99559.44;10482448;28;20040;-73
2022/08/02 08:43:36;;;;;;;9.13;2.58;;;;;;;35.35;25.93;99489.16;10500297;28;20032;-72
2022/08/02 08:48:40;;;;;;;;;;;;;;;36.24;26.22;99554.13;10501192;28;20128;-70
2022/08/02 08:53:48;;;;;;;8.38;2.20;;;;;;;36.07;24.38;99554.53;10500861;28;19965;-70
2022/08/02 08:58:49;;;;;;;10.02;2.67;;;;;;;36.20;24.58;99544.16;10499399;28;20063;-71
2022/08/02 09:03:50;;;;;;;14.55;2.70;;;;;;;35.76;24.99;99464.13;10499877;28;20047;-71
2022/08/02 09:08:51;;;;;;;12.10;2.50;;;;;;;36.21;24.37;99531.94;10499537;28;20131;-71
2022/08/02 09:13:54;;;;;;;12.70;2.73;;;;;;;36.47;23.94;99531.34;10536848;28;20060;-71
2022/08/02 09:18:55;;;;;;;5.28;2.50;;;;;;;36.01;24.04;99457.22;10540569;28;20149;-71
2022/08/02 09:23:56;;;;;;;7.00;2.38;;;;;;;36.33;25.04;99532.63;10540704;28;20076;-71
2022/08/02 09:29:01;;;;;;;8.13;2.57;;;;;;;36.09;25.17;99494.94;10538631;28;20870;-70
2022/08/02 09:34:02;;;;;;;5.30;2.05;;;;;;;36.40;24.81;99501.53;10519079;28;20040;-74
2022/08/02 09:39:05;;;;;;;10.15;3.00;;;;;;;36.54;24.44;99503.84;10520868;28;20047;-70
2022/08/02 09:44:08;;;;;;;10.93;2.50;;;;;;;36.38;24.05;99503.06;10539400;28;20466;-71
2022/08/02 09:49:13;;;;;;;12.80;2.40;;;;;;;36.00;24.67;99499.84;10518324;28;20055;-70
2022/08/02 09:54:19;;;;;;;8.65;2.45;;;;;;;35.43;25.53;99459.75;10497993;28;20400;-70
2022/08/02 09:59:23;;;;;;;5.57;2.13;;;;;;;35.47;24.79;99504.03;10497591;28;20032;-70
2022/08/02 10:04:28;;;;;;;10.48;2.33;;;;;;;35.55;25.78;99505.84;10497147;28;20435;-71
2022/08/02 10:09:29;;;;;;;8.52;2.42;;;;;;;35.42;26.73;99503.16;10496539;28;20045;-70
2022/08/02 10:14:33;;;;;;;13.25;2.38;;;;;;;35.36;26.73;99492.69;10496210;28;20056;-69
2022/08/02 10:19:34;;;;;;;7.55;2.75;;;;;;;35.24;27.19;99484.50;10496554;28;20045;-69
2022/08/02 10:24:38;;;;;;;29.80;3.47;;;;;;;35.30;26.44;99461.81;10496240;28;20044;-71
2022/08/02 10:29:40;;;;;;;41.13;4.53;;;;;;;35.76;25.72;99428.22;10497388;28;20036;-70
2022/08/02 10:35:03;;;;;;;11.90;2.75;;;;;;;36.59;25.00;99486.16;10495827;28;20086;-71
2022/08/02 10:40:05;;;;;;;51.97;5.03;;;;;;;36.96;25.17;99469.91;10496251;28;20040;-71
2022/08/02 10:45:10;;;;;;;5.75;2.28;;;;;;;37.15;24.70;99453.25;10496536;28;20059;-70
2022/08/02 10:50:11;;;;;;;5.65;2.28;;;;;;;37.15;24.11;99436.66;10496194;28;20056;-72
2022/08/02 10:55:13;;;;;;;10.77;2.33;;;;;;;37.49;23.70;99472.88;10495517;28;20389;-71
2022/08/02 11:00:22;;;;;;;14.95;2.60;;;;;;;37.54;23.57;99475.31;10495411;28;20071;-71
2022/08/02 11:05:31;;;;;;;12.90;2.78;;;;;;;37.21;22.95;99445.44;10497533;28;20044;-71
2022/08/02 11:10:37;;;;;;;7.22;2.65;;;;;;;37.27;22.53;99471.66;10503685;28;20051;-70
2022/08/02 11:15:50;;;;;;;4.78;2.20;;;;;;;37.33;22.90;99472.16;10503281;28;20059;-70
2022/08/02 11:21:21;;;;;;;14.63;2.80;;;;;;;37.19;22.24;99470.75;10532772;28;20123;-69
2022/08/02 11:26:28;;;;;;;57.30;4.07;;;;;;;37.29;22.15;99474.88;10493127;28;20496;-71
2022/08/02 11:31:38;;;;;;;8.27;2.08;;;;;;;37.33;21.74;99467.41;10503432;28;20045;-70
2022/08/02 11:36:44;;;;;;;13.23;2.35;;;;;;;37.09;21.73;99457.50;10503382;28;20435;-70
2022/08/02 11:41:56;;;;;;;7.25;2.55;;;;;;;37.29;21.98;99468.53;10518466;28;20032;-70
2022/08/02 11:46:59;;;;;;;7.00;2.22;;;;;;;37.22;22.22;99470.03;10542297;28;20097;-70
2022/08/02 11:52:06;;;;;;;7.50;2.40;;;;;;;37.21;22.03;99471.16;10544740;28;20038;-70
2022/08/02 11:57:20;;;;;;;11.77;2.80;;;;;;;37.01;21.58;99392.13;10544104;28;20075;-68
2022/08/02 12:02:30;;;;;;;6.95;2.20;;;;;;;37.30;21.94;99459.06;10543853;28;20047;-68
2022/08/02 12:07:37;;;;;;;6.03;2.20;;;;;;;37.37;22.02;99448.13;10537971;28;20465;-68
2022/08/02 12:12:53;;;;;;;5.28;2.47;;;;;;;37.03;21.87;99381.47;10543039;28;20078;-71
2022/08/02 12:23:13;;;;;;;6.13;2.55;;;;;;;37.34;21.84;99430.25;10542891;28;20044;-70
2022/08/02 12:28:21;;;;;;;8.27;2.73;;;;;;;37.38;21.40;99441.41;10538161;28;20492;-71
2022/08/02 12:33:23;;;;;;;7.57;2.45;;;;;;;37.37;21.90;99448.13;10514944;28;20089;-69
2022/08/02 12:38:24;;;;;;;10.20;2.60;;;;;;;37.21;21.69;99449.00;10542312;28;20097;-72
2022/08/02 12:43:25;;;;;;;12.77;2.78;;;;;;;37.12;22.24;99437.38;10525591;28;20519;-68
2022/08/02 12:48:39;;;;;;;13.52;2.55;;;;;;;37.14;21.48;99437.03;10526660;28;20407;-72
2022/08/02 12:53:40;;;;;;;4.85;2.25;;;;;;;36.99;22.40;99428.47;10537249;28;20024;-69
2022/08/02 12:58:48;;;;;;;5.78;2.40;;;;;;;36.79;22.23;99418.56;10537781;28;20085;-68
2022/08/02 13:03:50;;;;;;;7.30;2.45;;;;;;;36.84;22.05;99445.16;10536211;28;20089;-69
2022/08/02 13:08:55;;;;;;;6.85;2.20;;;;;;;36.73;22.20;99442.97;10539910;28;20430;-69
2022/08/02 13:13:56;;;;;;;12.80;2.53;;;;;;;36.40;21.54;99379.06;10535102;28;20086;-69
2022/08/02 13:18:58;;;;;;;6.03;2.50;;;;;;;36.58;21.95;99456.91;10539060;28;20071;-68
2022/08/02 13:23:59;;;;;;;6.25;2.60;;;;;;;36.02;21.97;99364.03;10538451;28;20055;-70
2022/08/02 13:29:00;;;;;;;6.07;2.15;;;;;;;36.49;21.90;99421.13;10537342;28;20105;-68
2022/08/02 13:34:01;;;;;;;8.65;2.50;;;;;;;36.68;21.82;99451.59;10536609;28;20044;-70
2022/08/02 13:39:04;;;;;;;15.95;2.83;;;;;;;36.64;22.17;99450.69;10531904;28;20043;-68
2022/08/02 13:44:05;;;;;;;4.82;2.30;;;;;;;36.61;21.79;99453.41;10539384;28;20047;-69
2022/08/02 13:49:05;;;;;;;13.90;2.60;;;;;;;36.42;21.87;99432.06;10539510;28;20040;-70
2022/08/02 13:54:06;;;;;;;24.40;2.78;;;;;;;35.91;21.69;99379.59;10540126;28;20539;-68
2022/08/02 13:59:07;;;;;;;9.18;2.78;;;;;;;36.24;22.40;99426.16;10539452;28;20036;-69
2022/08/02 14:04:08;;;;;;;8.50;2.13;;;;;;;35.97;22.02;99427.91;10532094;28;20097;-69
2022/08/02 14:09:09;;;;;;;7.95;2.42;;;;;;;35.37;21.57;99395.72;10535877;28;20040;-68
2022/08/02 14:14:09;;;;;;;8.48;2.38;;;;;;;35.49;22.07;99436.25;10536540;28;20420;-70
2022/08/02 14:19:11;;;;;;;9.88;2.55;;;;;;;34.48;22.21;99327.94;10530966;28;20531;-73
2022/08/02 14:24:12;;;;;;;23.97;3.23;;;;;;;34.95;22.62;99395.41;10507708;28;20044;-71
2022/08/02 14:29:15;;;;;;;23.90;3.67;;;;;;;34.79;22.69;99392.63;10495398;28;20044;-74
2022/08/02 14:34:16;;;;;;;20.55;3.70;;;;;;;35.21;22.67;99453.69;10478280;28;20051;-71
2022/08/02 14:39:17;;;;;;;18.33;3.10;;;;;;;35.13;22.55;99440.88;10496181;28;20127;-72
2022/08/02 14:44:18;;;;;;;8.93;2.80;;;;;;;34.98;22.87;99455.41;10497105;28;20135;-73
2022/08/02 14:49:19;;;;;;;35.15;4.32;;;;;;;34.94;23.46;99460.03;10496014;28;20123;-71
2022/08/02 14:54:21;;;;;;;20.80;3.35;;;;;;;35.03;23.89;99468.94;10496809;28;20037;-70
2022/08/02 14:59:22;;;;;;;8.32;2.67;;;;;;;35.05;23.54;99497.03;10495371;28;20037;-74
2022/08/02 15:04:22;;;;;;;25.63;3.33;;;;;;;34.92;24.18;99489.94;10495788;28;20040;-70
2022/08/02 15:09:23;;;;;;;8.90;2.97;;;;;;;34.69;24.20;99486.94;10495185;28;20420;-72
2022/08/02 15:14:24;;;;;;;33.70;4.22;;;;;;;34.60;24.71;99495.34;10495832;28;20064;-72
2022/08/02 15:19:26;;;;;;;15.85;3.13;;;;;;;34.28;25.08;99477.81;10495227;28;20043;-71
2022/08/02 15:24:27;;;;;;;11.07;3.10;;;;;;;33.80;25.28;99441.69;10502914;28;20419;-70
2022/08/02 15:29:28;;;;;;;29.10;4.10;;;;;;;34.11;25.93;99500.94;10511327;28;20036;-72
2022/08/02 15:34:28;;;;;;;30.90;4.00;;;;;;;33.99;26.13;99511.94;10518896;28;20054;-70
2022/08/02 15:39:30;;;;;;;14.88;2.70;;;;;;;33.78;26.27;99492.78;10522284;28;20032;-70
2022/08/02 15:44:30;;;;;;;13.80;2.80;;;;;;;33.76;26.74;99504.13;10498819;28;20097;-70
2022/08/02 15:49:31;;;;;;;13.68;2.72;;;;;;;33.76;26.62;99517.09;10495010;28;20093;-71
2022/08/02 15:54:32;;;;;;;19.23;2.50;;;;;;;33.68;26.47;99526.28;10500228;28;20040;-70
2022/08/02 15:59:33;;;;;;;12.07;3.47;;;;;;;33.30;26.99;99477.78;10501975;28;20044;-71
2022/08/02 16:04:34;;;;;;;23.00;6.63;;;;;;;32.95;27.21;99454.16;10502880;28;20127;-71
2022/08/02 16:09:35;;;;;;;12.75;4.60;;;;;;;32.90;27.59;99467.31;10503070;28;20134;-71
2022/08/02 16:14:35;;;;;;;8.32;3.97;;;;;;;33.12;27.73;99538.53;10501507;28;20080;-71
2022/08/02 16:19:36;;;;;;;18.17;6.68;;;;;;;32.60;27.76;99469.38;10501128;28;20128;-70
2022/08/02 16:24:37;;;;;;;19.48;4.10;;;;;;;31.94;27.73;99395.81;10501865;28;20480;-70
2022/08/02 16:29:38;;;;;;;15.07;3.63;;;;;;;32.63;27.70;99531.94;10501937;28;20090;-74
2022/08/02 16:34:39;;;;;;;12.40;2.90;;;;;;;32.53;27.91;99546.09;10501670;28;20382;-71
2022/08/02 16:39:40;;;;;;;13.38;3.03;;;;;;;32.37;28.63;99551.31;10500825;28;20474;-70
2022/08/02 16:44:41;;;;;;;12.30;3.20;;;;;;;32.19;29.19;99561.63;10500913;28;20052;-71
2022/08/02 16:49:41;;;;;;;17.30;3.38;;;;;;;31.97;29.28;99540.72;10500849;28;20112;-71
2022/08/02 16:54:42;;;;;;;14.88;3.35;;;;;;;31.74;29.49;99537.41;10500439;28;20141;-71
2022/08/02 16:59:43;;;;;;;13.88;2.85;;;;;;;31.66;29.20;99547.28;10499416;28;20036;-72
2022/08/02 17:04:44;;;;;;;17.27;3.00;;;;;;;31.61;29.32;99580.41;10498051;28;20055;-71
2022/08/02 17:09:45;;;;;;;11.43;2.70;;;;;;;31.53;29.91;99578.47;10500211;28;20047;-71
2022/08/02 17:14:47;;;;;;;9.45;2.47;;;;;;;31.30;30.33;99556.72;10499479;28;20052;-71
2022/08/02 17:19:48;;;;;;;7.63;2.67;;;;;;;31.09;30.95;99536.56;10498825;28;20044;-72
2022/08/02 17:24:48;;;;;;;18.60;3.00;;;;;;;30.82;31.54;99516.59;10499478;28;20466;-72
2022/08/02 17:29:50;;;;;;;9.82;2.40;;;;;;;31.11;32.00;99594.66;10513215;28;20408;-70
2022/08/02 17:34:51;;;;;;;15.23;2.80;;;;;;;30.96;32.40;99592.41;10494577;28;20060;-70
2022/08/02 17:39:51;;;;;;;10.43;2.90;;;;;;;30.88;32.59;99602.25;10497810;28;20040;-69
2022/08/02 17:44:54;;;;;;;11.48;2.53;;;;;;;30.74;33.63;99599.59;10498062;28;20071;-70
2022/08/02 17:49:56;;;;;;;11.18;2.75;;;;;;;30.63;33.65;99603.78;10497257;28;20044;-72
2022/08/02 17:54:57;;;;;;;11.17;2.80;;;;;;;30.46;34.31;99593.59;10514392;28;20055;-71
2022/08/02 17:59:59;;;;;;;9.50;2.67;;;;;;;29.92;34.74;99538.94;10511564;28;20496;-73
2022/08/02 18:05:00;;;;;;;10.43;2.80;;;;;;;29.96;35.09;99555.53;10501062;28;20068;-72
2022/08/02 18:10:00;;;;;;;8.68;2.92;;;;;;;30.19;34.89;99619.28;10533594;28;20142;-72
2022/08/02 18:15:02;;;;;;;10.18;2.65;;;;;;;30.12;35.66;99630.66;10534773;28;20091;-71
2022/08/02 18:20:03;;;;;;;8.10;2.75;;;;;;;29.87;36.04;99613.00;10537156;28;20450;-72
2022/08/02 18:25:04;;;;;;;8.73;2.58;;;;;;;29.88;36.31;99630.22;10533020;28;20040;-73
2022/08/02 18:30:07;;;;;;;8.98;2.78;;;;;;;29.72;36.64;99624.34;10537951;28;20043;-71
2022/08/02 18:35:08;;;;;;;;;;;;;;;29.87;36.40;99625.88;10539394;28;20399;-73
2022/08/02 18:40:09;;;;;;;11.10;3.30;;;;;;;29.53;36.85;99614.41;10538262;28;19922;-71
2022/08/02 18:45:10;;;;;;;14.50;2.80;;;;;;;29.52;36.71;99618.22;10537402;28;20051;-71
2022/08/02 18:50:11;;;;;;;7.57;2.60;;;;;;;29.46;37.33;99624.94;10537952;28;20036;-71
2022/08/02 18:55:12;;;;;;;8.15;3.10;;;;;;;29.40;37.18;99637.13;10538205;28;20134;-70
2022/08/02 19:00:13;;;;;;;10.30;2.50;;;;;;;29.21;37.72;99622.84;10538522;28;20064;-71
2022/08/02 19:05:14;;;;;;;15.35;2.38;;;;;;;29.21;38.10;99642.78;10537389;28;20036;-71
2022/08/02 19:10:15;;;;;;;17.60;2.70;;;;;;;28.53;38.40;99554.34;10537000;28;20043;-71
2022/08/02 19:15:17;;;;;;;13.63;2.60;;;;;;;28.94;38.76;99635.44;10537158;28;20056;-71
2022/08/02 19:20:17;;;;;;;11.70;2.55;;;;;;;28.88;39.00;99642.16;10537564;28;20083;-71
2022/08/02 19:25:18;;;;;;;9.98;2.47;;;;;;;28.38;39.33;99590.16;10519035;28;20463;-71
2022/08/02 19:30:19;;;;;;;9.50;2.72;;;;;;;28.66;39.55;99643.69;10545000;28;20039;-71
2022/08/02 19:35:21;;;;;;;6.97;2.45;;;;;;;28.12;39.69;99581.66;10545339;28;20434;-72
2022/08/02 19:40:23;;;;;;;8.25;2.58;;;;;;;28.47;40.12;99644.91;10545326;28;20043;-72
2022/08/02 19:45:24;;;;;;;8.13;2.22;;;;;;;28.28;40.23;99628.63;10544651;28;20047;-71
2022/08/02 19:50:26;;;;;;;7.25;2.47;;;;;;;28.33;40.39;99651.19;10545300;28;20040;-71
2022/08/02 19:55:27;;;;;;;8.63;2.65;;;;;;;28.21;40.49;99646.22;10544021;28;20556;-71
2022/08/02 20:00:28;;;;;;;40.65;4.30;;;;;;;27.98;40.68;99642.53;10543916;28;20044;-71
2022/08/02 20:05:29;;;;;;;12.00;3.10;;;;;;;27.71;41.24;99626.06;10544654;28;20044;-71
2022/08/02 20:10:32;;;;;;;12.38;2.72;;;;;;;27.63;41.57;99635.72;10543373;28;20036;-71
2022/08/02 20:15:33;;;;;;;10.02;2.70;;;;;;;27.65;42.19;99641.72;10544422;28;20083;-71
2022/08/02 20:20:37;;;;;;;11.18;3.20;;;;;;;27.19;42.81;99581.63;10543771;28;20752;-71
2022/08/02 20:25:38;;;;;;;5.53;2.55;;;;;;;27.44;42.76;99659.53;10543215;28;20139;-72
2022/08/02 20:30:39;;;;;;;13.27;3.33;;;;;;;27.26;43.94;99681.06;10544571;28;20142;-72
2022/08/02 20:35:40;;;;;;;20.65;3.63;;;;;;;27.19;43.91;99682.50;10524940;28;20032;-72
2022/08/02 20:40:42;;;;;;;16.25;3.20;;;;;;;26.76;43.88;99628.81;10542973;28;20044;-72
2022/08/02 20:45:43;;;;;;;18.13;3.47;;;;;;;27.07;44.42;99677.47;10542731;28;20395;-71
2022/08/02 20:50:55;;;;;;;13.25;3.13;;;;;;;26.99;44.15;99680.88;10542888;28;20039;-71
2022/08/02 20:55:56;;;;;;;7.85;2.97;;;;;;;26.40;44.31;99610.19;10542614;28;20059;-72
2022/08/02 21:00:58;;;;;;;9.48;2.70;;;;;;;26.21;44.54;99587.56;10541898;28;20075;-70
2022/08/02 21:05:59;;;;;;;9.07;2.60;;;;;;;26.26;44.67;99587.47;10541087;28;20044;-71
2022/08/02 21:11:00;;;;;;;10.23;3.03;;;;;;;26.33;45.10;99587.94;10541384;28;20517;-71
2022/08/02 21:16:00;;;;;;;10.18;2.70;;;;;;;26.81;45.60;99672.38;10540936;28;20082;-71
2022/08/02 21:21:01;;;;;;;17.67;2.70;;;;;;;26.76;45.88;99669.69;10540695;28;20044;-71
2022/08/02 21:26:05;;;;;;;7.60;2.30;;;;;;;25.78;46.32;99529.47;10540828;28;20082;-71
2022/08/02 21:31:06;;;;;;;12.05;2.72;;;;;;;26.63;46.73;99656.78;10540220;28;20119;-71
2022/08/02 21:36:06;;;;;;;11.88;2.85;;;;;;;26.58;46.63;99667.75;10541113;28;20048;-71
2022/08/02 21:41:08;;;;;;;5.70;2.58;;;;;;;26.49;47.02;99653.13;10541156;28;20040;-71
2022/08/02 21:46:09;;;;;;;6.72;2.40;;;;;;;26.62;47.41;99668.78;10539542;28;20496;-71
2022/08/02 21:51:10;;;;;;;11.02;2.33;;;;;;;26.13;47.34;99594.44;10538663;28;20039;-71
2022/08/02 21:56:10;;;;;;;10.15;3.55;;;;;;;26.55;48.09;99671.84;10540029;28;20043;-72
2022/08/02 22:01:11;;;;;;;12.40;3.22;;;;;;;26.44;48.49;99680.41;10540429;28;20118;-71
2022/08/02 22:06:12;;;;;;;8.57;2.67;;;;;;;26.37;48.50;99670.66;10536608;28;20058;-72
2022/08/02 22:11:13;;;;;;;17.40;2.65;;;;;;;26.35;48.79;99675.56;10516148;28;20036;-71
2022/08/02 22:16:14;;;;;;;9.65;2.80;;;;;;;26.21;49.48;99671.94;10538219;28;20470;-71
2022/08/02 22:21:14;;;;;;;13.18;3.35;;;;;;;26.15;50.22;99687.50;10532311;28;20108;-71
2022/08/02 22:26:15;;;;;;;24.65;3.67;;;;;;;25.90;50.91;99676.84;10496158;28;20083;-71
2022/08/02 22:31:16;;;;;;;9.43;2.50;;;;;;;25.77;50.97;99672.06;10496129;28;20048;-71
2022/08/02 22:36:17;;;;;;;12.25;2.53;;;;;;;25.76;50.84;99679.41;10497635;28;20044;-71
2022/08/02 22:41:21;;;;;;;24.42;3.00;;;;;;;25.63;50.95;99663.72;10496943;28;20044;-71
2022/08/02 22:46:22;;;;;;;10.70;2.50;;;;;;;25.49;51.26;99660.84;10496908;28;20040;-71
2022/08/02 22:51:23;;;;;;;18.77;2.72;;;;;;;25.49;51.53;99661.66;10495998;28;20028;-71
2022/08/02 22:56:24;;;;;;;8.15;2.72;;;;;;;25.30;52.01;99657.97;10495969;28;20127;-71
2022/08/02 23:01:25;;;;;;;18.23;2.97;;;;;;;25.18;52.21;99669.19;10495927;28;20127;-71
2022/08/02 23:06:26;;;;;;;9.38;3.10;;;;;;;24.29;52.68;99546.84;10495958;28;20040;-71
2022/08/02 23:11:27;;;;;;;7.68;2.60;;;;;;;25.05;53.25;99686.09;10495648;28;20036;-71
2022/08/02 23:21:46;;;;;;;8.15;2.55;;;;;;;24.50;54.41;99634.47;10495636;28;20032;-71
2022/08/02 23:26:47;;;;;;;7.95;2.85;;;;;;;24.77;55.22;99688.41;10495327;28;20049;-71
2022/08/02 23:31:48;;;;;;;6.35;2.88;;;;;;;24.72;55.91;99691.13;10495411;28;20452;-71